sensor_id;sensor_type;location;lat;lon;timestamp;temperature;humidity
46416;DHT22;32620;51.704;7.822;2023-06-14T00:00:11;17.70;1.00
46416;DHT22;32620;51.704;7.822;2023-06-14T00:02:39;17.70;1.00
46416;DHT22;32620;51.704;7.822;2023-06-14T00:05:05;17.70;1.00
46416;DHT22;32620;51.704;7.822;2023-06-14T00:07:39;17.70;1.00
46416;DHT22;32620;51.704;7.822;2023-06-14T00:10:10;17.60;1.00
46416;DHT22;32620;51.704;7.822;2023-06-14T00:12:36;17.60;1.00
46416;DHT22;32620;51.704;7.822;2023-06-14T00:15:02;17.50;1.00
46416;DHT22;32620;51.704;7.822;2023-06-14T00:17:27;17.40;1.00
46416;DHT22;32620;51.704;7.822;2023-06-14T00:19:57;17.30;1.00
46416;DHT22;32620;51.704;7.822;2023-06-14T00:22:23;17.30;1.00
46416;DHT22;32620;51.704;7.822;2023-06-14T00:24:54;17.30;1.00
46416;DHT22;32620;51.704;7.822;2023-06-14T00:27:19;17.20;1.00
46416;DHT22;32620;51.704;7.822;2023-06-14T00:29:45;17.10;1.00
46416;DHT22;32620;51.704;7.822;2023-06-14T00:32:11;17.00;1.00
46416;DHT22;32620;51.704;7.822;2023-06-14T00:34:36;17.00;1.00
46416;DHT22;32620;51.704;7.822;2023-06-14T00:37:02;16.90;1.00
46416;DHT22;32620;51.704;7.822;2023-06-14T00:39:27;16.90;1.00
46416;DHT22;32620;51.704;7.822;2023-06-14T00:41:53;16.90;1.00
46416;DHT22;32620;51.704;7.822;2023-06-14T00:44:19;16.80;1.00
46416;DHT22;32620;51.704;7.822;2023-06-14T00:46:45;16.70;1.00
46416;DHT22;32620;51.704;7.822;2023-06-14T00:49:13;16.70;1.00
46416;DHT22;32620;51.704;7.822;2023-06-14T00:51:40;16.70;1.00
46416;DHT22;32620;51.704;7.822;2023-06-14T00:54:06;16.70;1.00
46416;DHT22;32620;51.704;7.822;2023-06-14T00:56:32;16.60;1.00
46416;DHT22;32620;51.704;7.822;2023-06-14T00:58:57;16.60;1.00
46416;DHT22;32620;51.704;7.822;2023-06-14T01:01:23;16.60;1.00
46416;DHT22;32620;51.704;7.822;2023-06-14T01:03:49;16.60;1.00
46416;DHT22;32620;51.704;7.822;2023-06-14T01:06:32;16.60;1.00
46416;DHT22;32620;51.704;7.822;2023-06-14T01:12:14;16.50;1.00
46416;DHT22;32620;51.704;7.822;2023-06-14T01:14:41;16.50;1.00
46416;DHT22;32620;51.704;7.822;2023-06-14T01:17:08;16.50;1.00
46416;DHT22;32620;51.704;7.822;2023-06-14T01:19:41;16.50;1.00
46416;DHT22;32620;51.704;7.822;2023-06-14T01:22:08;16.40;1.00
46416;DHT22;32620;51.704;7.822;2023-06-14T01:24:34;16.40;1.00
46416;DHT22;32620;51.704;7.822;2023-06-14T01:27:00;16.30;1.00
46416;DHT22;32620;51.704;7.822;2023-06-14T01:29:26;16.20;1.00
46416;DHT22;32620;51.704;7.822;2023-06-14T01:31:53;16.20;1.00
46416;DHT22;32620;51.704;7.822;2023-06-14T01:34:20;16.10;1.00
46416;DHT22;32620;51.704;7.822;2023-06-14T01:36:45;16.10;1.00
46416;DHT22;32620;51.704;7.822;2023-06-14T01:39:14;16.10;2.00
46416;DHT22;32620;51.704;7.822;2023-06-14T01:41:41;16.00;1.00
46416;DHT22;32620;51.704;7.822;2023-06-14T01:44:08;16.00;1.70
46416;DHT22;32620;51.704;7.822;2023-06-14T01:46:33;16.00;1.00
46416;DHT22;32620;51.704;7.822;2023-06-14T01:48:59;16.00;6.70
46416;DHT22;32620;51.704;7.822;2023-06-14T01:51:25;16.00;8.00
46416;DHT22;32620;51.704;7.822;2023-06-14T01:53:51;15.90;11.00
46416;DHT22;32620;51.704;7.822;2023-06-14T01:56:16;15.90;14.30
46416;DHT22;32620;51.704;7.822;2023-06-14T01:58:42;15.90;16.20
46416;DHT22;32620;51.704;7.822;2023-06-14T02:01:07;15.90;21.10
46416;DHT22;32620;51.704;7.822;2023-06-14T02:03:33;15.80;29.50
46416;DHT22;32620;51.704;7.822;2023-06-14T02:05:59;15.80;23.40
46416;DHT22;32620;51.704;7.822;2023-06-14T02:08:25;15.70;31.00
46416;DHT22;32620;51.704;7.822;2023-06-14T02:10:51;15.70;34.80
46416;DHT22;32620;51.704;7.822;2023-06-14T02:13:16;15.60;37.60
46416;DHT22;32620;51.704;7.822;2023-06-14T02:15:42;15.60;42.30
46416;DHT22;32620;51.704;7.822;2023-06-14T02:18:09;15.50;47.40
46416;DHT22;32620;51.704;7.822;2023-06-14T02:20:35;15.50;54.20
46416;DHT22;32620;51.704;7.822;2023-06-14T02:23:01;15.50;61.40
46416;DHT22;32620;51.704;7.822;2023-06-14T02:25:26;15.50;59.80
46416;DHT22;32620;51.704;7.822;2023-06-14T02:27:53;15.40;68.70
46416;DHT22;32620;51.704;7.822;2023-06-14T02:30:20;15.40;77.30
46416;DHT22;32620;51.704;7.822;2023-06-14T02:32:46;15.40;83.80
46416;DHT22;32620;51.704;7.822;2023-06-14T02:35:13;15.40;86.70
46416;DHT22;32620;51.704;7.822;2023-06-14T02:37:39;15.40;92.10
46416;DHT22;32620;51.704;7.822;2023-06-14T02:40:06;15.30;96.90
46416;DHT22;32620;51.704;7.822;2023-06-14T02:42:31;15.30;97.90
46416;DHT22;32620;51.704;7.822;2023-06-14T02:44:57;15.30;99.90
46416;DHT22;32620;51.704;7.822;2023-06-14T02:47:22;15.30;99.90
46416;DHT22;32620;51.704;7.822;2023-06-14T02:49:48;15.20;99.90
46416;DHT22;32620;51.704;7.822;2023-06-14T02:52:14;15.20;99.90
46416;DHT22;32620;51.704;7.822;2023-06-14T02:54:39;15.20;99.90
46416;DHT22;32620;51.704;7.822;2023-06-14T02:57:05;15.10;99.90
46416;DHT22;32620;51.704;7.822;2023-06-14T02:59:33;15.20;99.90
46416;DHT22;32620;51.704;7.822;2023-06-14T03:01:59;15.10;99.90
46416;DHT22;32620;51.704;7.822;2023-06-14T03:04:25;15.10;99.90
46416;DHT22;32620;51.704;7.822;2023-06-14T03:06:51;15.10;99.90
46416;DHT22;32620;51.704;7.822;2023-06-14T03:09:17;15.10;99.90
46416;DHT22;32620;51.704;7.822;2023-06-14T03:11:42;15.10;99.90
46416;DHT22;32620;51.704;7.822;2023-06-14T03:14:08;15.20;99.90
46416;DHT22;32620;51.704;7.822;2023-06-14T03:16:34;15.20;99.90
46416;DHT22;32620;51.704;7.822;2023-06-14T03:18:59;15.20;99.90
46416;DHT22;32620;51.704;7.822;2023-06-14T03:21:25;15.20;99.90
46416;DHT22;32620;51.704;7.822;2023-06-14T03:23:51;15.20;99.90
46416;DHT22;32620;51.704;7.822;2023-06-14T03:26:18;15.20;99.90
46416;DHT22;32620;51.704;7.822;2023-06-14T03:28:44;15.20;99.90
46416;DHT22;32620;51.704;7.822;2023-06-14T03:31:11;15.20;99.90
46416;DHT22;32620;51.704;7.822;2023-06-14T03:33:37;15.10;99.90
46416;DHT22;32620;51.704;7.822;2023-06-14T03:36:02;15.10;99.90
46416;DHT22;32620;51.704;7.822;2023-06-14T03:38:29;15.10;99.90
46416;DHT22;32620;51.704;7.822;2023-06-14T03:40:54;15.10;99.90
46416;DHT22;32620;51.704;7.822;2023-06-14T03:43:20;15.10;99.90
46416;DHT22;32620;51.704;7.822;2023-06-14T03:45:45;15.10;99.90
46416;DHT22;32620;51.704;7.822;2023-06-14T03:48:11;15.10;99.90
46416;DHT22;32620;51.704;7.822;2023-06-14T03:50:37;15.10;99.90
46416;DHT22;32620;51.704;7.822;2023-06-14T03:53:04;15.10;99.90
46416;DHT22;32620;51.704;7.822;2023-06-14T03:55:29;15.10;99.90
46416;DHT22;32620;51.704;7.822;2023-06-14T03:57:57;15.10;99.90
46416;DHT22;32620;51.704;7.822;2023-06-14T04:00:22;15.10;99.90
46416;DHT22;32620;51.704;7.822;2023-06-14T04:02:48;15.10;99.90
46416;DHT22;32620;51.704;7.822;2023-06-14T04:05:14;15.10;99.90
46416;DHT22;32620;51.704;7.822;2023-06-14T04:07:42;15.20;99.90
46416;DHT22;32620;51.704;7.822;2023-06-14T04:10:10;15.20;99.90
46416;DHT22;32620;51.704;7.822;2023-06-14T04:12:36;15.30;99.90
46416;DHT22;32620;51.704;7.822;2023-06-14T04:15:02;15.30;99.90
46416;DHT22;32620;51.704;7.822;2023-06-14T04:17:28;15.40;99.90
46416;DHT22;32620;51.704;7.822;2023-06-14T04:19:53;15.40;99.90
46416;DHT22;32620;51.704;7.822;2023-06-14T04:22:19;15.50;99.90
46416;DHT22;32620;51.704;7.822;2023-06-14T04:24:44;15.50;99.90
46416;DHT22;32620;51.704;7.822;2023-06-14T04:27:11;15.70;99.90
46416;DHT22;32620;51.704;7.822;2023-06-14T04:29:37;15.80;99.90
46416;DHT22;32620;51.704;7.822;2023-06-14T04:32:02;16.00;99.90
46416;DHT22;32620;51.704;7.822;2023-06-14T04:34:28;16.60;99.90
46416;DHT22;32620;51.704;7.822;2023-06-14T04:36:58;17.00;99.90
46416;DHT22;32620;51.704;7.822;2023-06-14T04:39:25;17.70;99.90
46416;DHT22;32620;51.704;7.822;2023-06-14T04:41:51;19.00;99.90
46416;DHT22;32620;51.704;7.822;2023-06-14T04:44:18;20.60;99.90
46416;DHT22;32620;51.704;7.822;2023-06-14T04:46:45;22.10;99.90
46416;DHT22;32620;51.704;7.822;2023-06-14T04:49:13;23.10;99.90
46416;DHT22;32620;51.704;7.822;2023-06-14T04:51:41;23.60;99.90
46416;DHT22;32620;51.704;7.822;2023-06-14T04:54:08;23.90;99.90
46416;DHT22;32620;51.704;7.822;2023-06-14T04:56:36;23.80;99.90
46416;DHT22;32620;51.704;7.822;2023-06-14T04:59:02;24.60;99.90
46416;DHT22;32620;51.704;7.822;2023-06-14T05:01:30;24.40;95.80
46416;DHT22;32620;51.704;7.822;2023-06-14T05:03:57;24.80;93.90
46416;DHT22;32620;51.704;7.822;2023-06-14T05:06:23;25.50;92.00
46416;DHT22;32620;51.704;7.822;2023-06-14T05:08:49;25.40;88.00
46416;DHT22;32620;51.704;7.822;2023-06-14T05:11:14;25.10;78.90
46416;DHT22;32620;51.704;7.822;2023-06-14T05:13:40;25.30;74.70
46416;DHT22;32620;51.704;7.822;2023-06-14T05:16:07;25.80;69.50
46416;DHT22;32620;51.704;7.822;2023-06-14T05:18:32;26.30;68.10
46416;DHT22;32620;51.704;7.822;2023-06-14T05:21:00;25.70;66.70
46416;DHT22;32620;51.704;7.822;2023-06-14T05:23:26;26.10;57.80
46416;DHT22;32620;51.704;7.822;2023-06-14T05:25:52;26.60;59.50
46416;DHT22;32620;51.704;7.822;2023-06-14T05:28:18;26.80;58.50
46416;DHT22;32620;51.704;7.822;2023-06-14T05:30:43;26.80;49.40
46416;DHT22;32620;51.704;7.822;2023-06-14T05:33:09;26.00;46.60
46416;DHT22;32620;51.704;7.822;2023-06-14T05:35:34;26.40;49.60
46416;DHT22;32620;51.704;7.822;2023-06-14T05:38:00;26.70;49.00
46416;DHT22;32620;51.704;7.822;2023-06-14T05:40:26;27.50;40.40
46416;DHT22;32620;51.704;7.822;2023-06-14T05:42:51;27.40;34.90
46416;DHT22;32620;51.704;7.822;2023-06-14T05:45:17;27.20;33.60
46416;DHT22;32620;51.704;7.822;2023-06-14T05:47:43;27.30;32.30
46416;DHT22;32620;51.704;7.822;2023-06-14T05:50:09;27.40;39.00
46416;DHT22;32620;51.704;7.822;2023-06-14T05:52:35;27.30;33.60
46416;DHT22;32620;51.704;7.822;2023-06-14T05:55:02;28.30;42.20
46416;DHT22;32620;51.704;7.822;2023-06-14T05:57:28;29.20;43.20
46416;DHT22;32620;51.704;7.822;2023-06-14T05:59:54;29.60;43.20
46416;DHT22;32620;51.704;7.822;2023-06-14T06:02:19;29.00;37.50
46416;DHT22;32620;51.704;7.822;2023-06-14T06:04:45;28.80;33.30
46416;DHT22;32620;51.704;7.822;2023-06-14T06:07:11;29.20;29.90
46416;DHT22;32620;51.704;7.822;2023-06-14T06:09:36;28.40;27.60
46416;DHT22;32620;51.704;7.822;2023-06-14T06:12:02;27.70;22.60
46416;DHT22;32620;51.704;7.822;2023-06-14T06:14:28;27.20;19.60
46416;DHT22;32620;51.704;7.822;2023-06-14T06:16:54;26.30;17.80
46416;DHT22;32620;51.704;7.822;2023-06-14T06:19:20;26.60;20.50
46416;DHT22;32620;51.704;7.822;2023-06-14T06:21:45;27.60;18.90
46416;DHT22;32620;51.704;7.822;2023-06-14T06:24:11;27.50;21.30
46416;DHT22;32620;51.704;7.822;2023-06-14T06:26:36;26.30;14.80
46416;DHT22;32620;51.704;7.822;2023-06-14T06:29:03;26.40;15.10
46416;DHT22;32620;51.704;7.822;2023-06-14T06:31:28;26.50;16.50
46416;DHT22;32620;51.704;7.822;2023-06-14T06:33:54;27.10;21.30
46416;DHT22;32620;51.704;7.822;2023-06-14T06:36:20;27.20;20.90
46416;DHT22;32620;51.704;7.822;2023-06-14T06:38:47;27.40;20.40
46416;DHT22;32620;51.704;7.822;2023-06-14T06:41:13;28.90;27.20
46416;DHT22;32620;51.704;7.822;2023-06-14T06:43:39;28.40;23.10
46416;DHT22;32620;51.704;7.822;2023-06-14T06:46:04;27.80;22.60
46416;DHT22;32620;51.704;7.822;2023-06-14T06:48:30;27.80;20.80
46416;DHT22;32620;51.704;7.822;2023-06-14T06:50:56;27.30;22.30
46416;DHT22;32620;51.704;7.822;2023-06-14T06:53:21;26.40;9.60
46416;DHT22;32620;51.704;7.822;2023-06-14T06:55:47;26.30;16.20
46416;DHT22;32620;51.704;7.822;2023-06-14T06:58:14;26.70;20.00
46416;DHT22;32620;51.704;7.822;2023-06-14T07:00:39;26.60;17.70
46416;DHT22;32620;51.704;7.822;2023-06-14T07:03:06;27.30;20.00
46416;DHT22;32620;51.704;7.822;2023-06-14T07:05:31;28.00;21.70
46416;DHT22;32620;51.704;7.822;2023-06-14T07:07:57;27.60;23.20
46416;DHT22;32620;51.704;7.822;2023-06-14T07:10:23;28.00;21.50
46416;DHT22;32620;51.704;7.822;2023-06-14T07:12:50;28.30;26.60
46416;DHT22;32620;51.704;7.822;2023-06-14T07:15:16;28.90;27.00
46416;DHT22;32620;51.704;7.822;2023-06-14T07:17:41;27.60;19.90
46416;DHT22;32620;51.704;7.822;2023-06-14T07:20:08;27.60;18.00
46416;DHT22;32620;51.704;7.822;2023-06-14T07:22:38;27.00;18.50
46416;DHT22;32620;51.704;7.822;2023-06-14T07:25:04;26.90;19.20
46416;DHT22;32620;51.704;7.822;2023-06-14T07:27:30;26.90;15.00
46416;DHT22;32620;51.704;7.822;2023-06-14T07:29:55;26.60;14.10
46416;DHT22;32620;51.704;7.822;2023-06-14T07:32:21;27.00;17.10
46416;DHT22;32620;51.704;7.822;2023-06-14T07:34:46;28.20;19.70
46416;DHT22;32620;51.704;7.822;2023-06-14T07:37:12;28.50;17.70
46416;DHT22;32620;51.704;7.822;2023-06-14T07:39:38;28.40;16.30
46416;DHT22;32620;51.704;7.822;2023-06-14T07:42:03;28.40;17.90
46416;DHT22;32620;51.704;7.822;2023-06-14T07:44:29;27.20;11.50
46416;DHT22;32620;51.704;7.822;2023-06-14T07:46:56;27.20;12.50
46416;DHT22;32620;51.704;7.822;2023-06-14T07:49:24;27.50;13.10
46416;DHT22;32620;51.704;7.822;2023-06-14T07:51:50;27.10;15.30
46416;DHT22;32620;51.704;7.822;2023-06-14T07:54:16;28.20;13.20
46416;DHT22;32620;51.704;7.822;2023-06-14T07:56:42;28.80;15.50
46416;DHT22;32620;51.704;7.822;2023-06-14T07:59:08;27.80;7.20
46416;DHT22;32620;51.704;7.822;2023-06-14T08:01:34;27.30;4.70
46416;DHT22;32620;51.704;7.822;2023-06-14T08:04:00;27.20;6.10
46416;DHT22;32620;51.704;7.822;2023-06-14T08:06:26;27.10;4.00
46416;DHT22;32620;51.704;7.822;2023-06-14T08:08:51;28.00;6.10
46416;DHT22;32620;51.704;7.822;2023-06-14T08:11:17;28.40;9.20
46416;DHT22;32620;51.704;7.822;2023-06-14T08:13:42;27.90;8.40
46416;DHT22;32620;51.704;7.822;2023-06-14T08:16:08;27.80;7.40
46416;DHT22;32620;51.704;7.822;2023-06-14T08:18:34;28.60;12.00
46416;DHT22;32620;51.704;7.822;2023-06-14T08:20:59;27.10;4.80
46416;DHT22;32620;51.704;7.822;2023-06-14T08:23:25;27.10;3.20
46416;DHT22;32620;51.704;7.822;2023-06-14T08:25:51;26.30;1.00
46416;DHT22;32620;51.704;7.822;2023-06-14T08:28:16;26.70;1.00
46416;DHT22;32620;51.704;7.822;2023-06-14T08:30:42;27.50;6.00
46416;DHT22;32620;51.704;7.822;2023-06-14T08:33:08;27.20;1.00
46416;DHT22;32620;51.704;7.822;2023-06-14T08:35:34;27.50;6.00
46416;DHT22;32620;51.704;7.822;2023-06-14T08:38:02;26.20;1.20
46416;DHT22;32620;51.704;7.822;2023-06-14T08:40:29;25.80;1.00
46416;DHT22;32620;51.704;7.822;2023-06-14T08:42:55;26.90;4.50
46416;DHT22;32620;51.704;7.822;2023-06-14T08:45:22;27.30;4.80
46416;DHT22;32620;51.704;7.822;2023-06-14T08:47:48;26.50;1.00
46416;DHT22;32620;51.704;7.822;2023-06-14T08:50:20;27.70;10.40
46416;DHT22;32620;51.704;7.822;2023-06-14T08:52:48;28.90;14.20
46416;DHT22;32620;51.704;7.822;2023-06-14T08:55:18;29.30;17.60
46416;DHT22;32620;51.704;7.822;2023-06-14T08:57:46;29.10;14.30
46416;DHT22;32620;51.704;7.822;2023-06-14T09:00:13;27.50;8.00
46416;DHT22;32620;51.704;7.822;2023-06-14T09:02:40;27.00;6.80
46416;DHT22;32620;51.704;7.822;2023-06-14T09:05:09;27.80;3.10
46416;DHT22;32620;51.704;7.822;2023-06-14T09:07:37;27.80;6.70
46416;DHT22;32620;51.704;7.822;2023-06-14T09:10:08;27.50;5.50
46416;DHT22;32620;51.704;7.822;2023-06-14T09:12:35;27.20;3.30
46416;DHT22;32620;51.704;7.822;2023-06-14T09:15:01;26.90;1.80
46416;DHT22;32620;51.704;7.822;2023-06-14T09:17:32;27.40;5.00
46416;DHT22;32620;51.704;7.822;2023-06-14T09:19:59;27.10;1.90
46416;DHT22;32620;51.704;7.822;2023-06-14T09:22:24;27.30;2.90
46416;DHT22;32620;51.704;7.822;2023-06-14T09:24:50;26.90;2.60
46416;DHT22;32620;51.704;7.822;2023-06-14T09:27:16;27.30;3.90
46416;DHT22;32620;51.704;7.822;2023-06-14T09:29:41;26.30;1.00
46416;DHT22;32620;51.704;7.822;2023-06-14T09:32:07;26.20;1.00
46416;DHT22;32620;51.704;7.822;2023-06-14T09:34:34;26.80;1.20
46416;DHT22;32620;51.704;7.822;2023-06-14T09:37:00;26.60;1.00
46416;DHT22;32620;51.704;7.822;2023-06-14T09:39:26;26.00;1.00
46416;DHT22;32620;51.704;7.822;2023-06-14T09:41:52;26.80;3.30
46416;DHT22;32620;51.704;7.822;2023-06-14T09:44:18;27.50;5.20
46416;DHT22;32620;51.704;7.822;2023-06-14T09:46:45;27.70;5.10
46416;DHT22;32620;51.704;7.822;2023-06-14T09:49:11;28.30;8.60
46416;DHT22;32620;51.704;7.822;2023-06-14T09:51:43;27.30;14.40
46416;DHT22;32620;51.704;7.822;2023-06-14T09:54:15;27.30;3.00
46416;DHT22;32620;51.704;7.822;2023-06-14T09:56:44;27.30;1.00
46416;DHT22;32620;51.704;7.822;2023-06-14T09:59:12;26.70;1.00
46416;DHT22;32620;51.704;7.822;2023-06-14T10:01:42;26.90;1.00
46416;DHT22;32620;51.704;7.822;2023-06-14T10:04:09;26.50;1.00
46416;DHT22;32620;51.704;7.822;2023-06-14T10:06:37;26.20;1.00
46416;DHT22;32620;51.704;7.822;2023-06-14T10:09:05;26.60;1.00
46416;DHT22;32620;51.704;7.822;2023-06-14T10:11:34;27.00;1.00
46416;DHT22;32620;51.704;7.822;2023-06-14T10:14:02;26.80;1.00
46416;DHT22;32620;51.704;7.822;2023-06-14T10:16:32;26.90;1.00
46416;DHT22;32620;51.704;7.822;2023-06-14T10:19:17;27.40;3.60
46416;DHT22;32620;51.704;7.822;2023-06-14T10:22:06;26.90;1.00
46416;DHT22;32620;51.704;7.822;2023-06-14T10:24:37;27.00;1.00
46416;DHT22;32620;51.704;7.822;2023-06-14T10:27:06;27.70;1.00
46416;DHT22;32620;51.704;7.822;2023-06-14T10:32:25;28.50;4.90
46416;DHT22;32620;51.704;7.822;2023-06-14T10:34:55;28.20;2.40
46416;DHT22;32620;51.704;7.822;2023-06-14T10:37:21;27.90;1.00
46416;DHT22;32620;51.704;7.822;2023-06-14T10:39:47;28.10;1.00
46416;DHT22;32620;51.704;7.822;2023-06-14T10:42:13;28.00;1.00
46416;DHT22;32620;51.704;7.822;2023-06-14T10:44:58;27.80;1.00
46416;DHT22;32620;51.704;7.822;2023-06-14T10:47:30;27.90;1.00
46416;DHT22;32620;51.704;7.822;2023-06-14T10:50:11;27.80;1.00
46416;DHT22;32620;51.704;7.822;2023-06-14T10:52:41;26.20;1.00
46416;DHT22;32620;51.704;7.822;2023-06-14T10:55:13;25.30;1.00
46416;DHT22;32620;51.704;7.822;2023-06-14T10:57:48;25.00;1.00
46416;DHT22;32620;51.704;7.822;2023-06-14T11:00:19;25.40;1.00
46416;DHT22;32620;51.704;7.822;2023-06-14T11:05:55;25.70;1.00
46416;DHT22;32620;51.704;7.822;2023-06-14T11:11:08;25.00;1.00
46416;DHT22;32620;51.704;7.822;2023-06-14T11:13:37;24.30;1.00
46416;DHT22;32620;51.704;7.822;2023-06-14T11:16:11;24.00;1.00
46416;DHT22;32620;51.704;7.822;2023-06-14T11:18:37;24.40;1.00
46416;DHT22;32620;51.704;7.822;2023-06-14T11:21:03;24.90;1.00
46416;DHT22;32620;51.704;7.822;2023-06-14T11:23:28;24.60;1.00
46416;DHT22;32620;51.704;7.822;2023-06-14T11:25:54;24.30;1.00
46416;DHT22;32620;51.704;7.822;2023-06-14T11:28:20;24.40;1.00
46416;DHT22;32620;51.704;7.822;2023-06-14T11:30:48;24.60;1.00
46416;DHT22;32620;51.704;7.822;2023-06-14T11:33:17;24.50;1.00
46416;DHT22;32620;51.704;7.822;2023-06-14T11:35:44;24.30;1.00
46416;DHT22;32620;51.704;7.822;2023-06-14T11:38:11;24.20;1.00
46416;DHT22;32620;51.704;7.822;2023-06-14T11:40:38;24.00;1.00
46416;DHT22;32620;51.704;7.822;2023-06-14T11:43:04;24.70;1.00
46416;DHT22;32620;51.704;7.822;2023-06-14T11:45:30;25.30;1.00
46416;DHT22;32620;51.704;7.822;2023-06-14T11:47:57;25.10;1.00
46416;DHT22;32620;51.704;7.822;2023-06-14T11:50:23;24.60;1.00
46416;DHT22;32620;51.704;7.822;2023-06-14T11:52:56;24.20;1.00
46416;DHT22;32620;51.704;7.822;2023-06-14T11:55:23;24.40;1.00
46416;DHT22;32620;51.704;7.822;2023-06-14T11:57:49;24.20;1.00
46416;DHT22;32620;51.704;7.822;2023-06-14T12:00:16;24.50;1.00
46416;DHT22;32620;51.704;7.822;2023-06-14T12:02:42;24.60;1.00
46416;DHT22;32620;51.704;7.822;2023-06-14T12:05:09;24.50;1.00
46416;DHT22;32620;51.704;7.822;2023-06-14T12:07:37;23.90;1.00
46416;DHT22;32620;51.704;7.822;2023-06-14T12:12:40;24.10;1.00
46416;DHT22;32620;51.704;7.822;2023-06-14T12:15:08;24.80;1.00
46416;DHT22;32620;51.704;7.822;2023-06-14T12:17:35;25.00;1.00
46416;DHT22;32620;51.704;7.822;2023-06-14T12:20:10;24.90;1.00
46416;DHT22;32620;51.704;7.822;2023-06-14T12:22:37;24.80;1.00
46416;DHT22;32620;51.704;7.822;2023-06-14T12:25:04;24.80;1.00
46416;DHT22;32620;51.704;7.822;2023-06-14T12:27:30;25.00;1.00
46416;DHT22;32620;51.704;7.822;2023-06-14T12:30:00;24.50;1.00
46416;DHT22;32620;51.704;7.822;2023-06-14T12:32:27;24.60;1.00
46416;DHT22;32620;51.704;7.822;2023-06-14T12:34:52;24.30;1.00
46416;DHT22;32620;51.704;7.822;2023-06-14T12:37:18;24.50;1.00
46416;DHT22;32620;51.704;7.822;2023-06-14T12:39:44;24.50;1.00
46416;DHT22;32620;51.704;7.822;2023-06-14T12:42:09;25.00;1.00
46416;DHT22;32620;51.704;7.822;2023-06-14T12:44:35;25.30;1.00
46416;DHT22;32620;51.704;7.822;2023-06-14T12:47:06;25.60;1.00
46416;DHT22;32620;51.704;7.822;2023-06-14T12:49:31;24.80;1.00
46416;DHT22;32620;51.704;7.822;2023-06-14T12:51:57;24.90;1.00
46416;DHT22;32620;51.704;7.822;2023-06-14T12:54:22;24.80;1.00
46416;DHT22;32620;51.704;7.822;2023-06-14T12:56:51;25.10;1.00
46416;DHT22;32620;51.704;7.822;2023-06-14T12:59:17;24.40;1.00
46416;DHT22;32620;51.704;7.822;2023-06-14T13:01:43;24.40;1.00
46416;DHT22;32620;51.704;7.822;2023-06-14T13:04:10;24.40;1.00
46416;DHT22;32620;51.704;7.822;2023-06-14T13:06:35;24.80;1.00
46416;DHT22;32620;51.704;7.822;2023-06-14T13:09:01;24.60;1.00
46416;DHT22;32620;51.704;7.822;2023-06-14T13:11:27;25.10;1.00
46416;DHT22;32620;51.704;7.822;2023-06-14T13:13:52;24.60;1.00
46416;DHT22;32620;51.704;7.822;2023-06-14T13:16:18;25.10;1.00
46416;DHT22;32620;51.704;7.822;2023-06-14T13:18:43;25.20;1.00
46416;DHT22;32620;51.704;7.822;2023-06-14T13:21:09;25.40;1.00
46416;DHT22;32620;51.704;7.822;2023-06-14T13:23:34;25.50;1.00
46416;DHT22;32620;51.704;7.822;2023-06-14T13:26:00;25.60;1.00
46416;DHT22;32620;51.704;7.822;2023-06-14T13:28:26;26.00;1.00
46416;DHT22;32620;51.704;7.822;2023-06-14T13:30:51;25.40;1.00
46416;DHT22;32620;51.704;7.822;2023-06-14T13:33:17;24.50;1.00
46416;DHT22;32620;51.704;7.822;2023-06-14T13:35:42;24.60;1.00
46416;DHT22;32620;51.704;7.822;2023-06-14T13:38:09;24.50;1.00
46416;DHT22;32620;51.704;7.822;2023-06-14T13:40:36;24.70;1.00
46416;DHT22;32620;51.704;7.822;2023-06-14T13:43:01;24.90;1.00
46416;DHT22;32620;51.704;7.822;2023-06-14T13:45:27;25.20;1.00
46416;DHT22;32620;51.704;7.822;2023-06-14T13:47:53;25.20;1.00
46416;DHT22;32620;51.704;7.822;2023-06-14T13:50:20;25.00;1.00
46416;DHT22;32620;51.704;7.822;2023-06-14T13:52:45;25.80;1.00
46416;DHT22;32620;51.704;7.822;2023-06-14T13:55:11;25.90;1.00
46416;DHT22;32620;51.704;7.822;2023-06-14T13:57:37;26.30;1.00
46416;DHT22;32620;51.704;7.822;2023-06-14T14:00:03;25.40;1.00
46416;DHT22;32620;51.704;7.822;2023-06-14T14:02:29;24.90;1.00
46416;DHT22;32620;51.704;7.822;2023-06-14T14:04:55;24.40;1.00
46416;DHT22;32620;51.704;7.822;2023-06-14T14:07:21;24.10;1.00
46416;DHT22;32620;51.704;7.822;2023-06-14T14:09:47;24.40;1.00
46416;DHT22;32620;51.704;7.822;2023-06-14T14:12:13;24.80;1.00
46416;DHT22;32620;51.704;7.822;2023-06-14T14:14:39;25.10;1.00
46416;DHT22;32620;51.704;7.822;2023-06-14T14:17:05;25.30;1.00
46416;DHT22;32620;51.704;7.822;2023-06-14T14:19:32;25.70;1.00
46416;DHT22;32620;51.704;7.822;2023-06-14T14:21:57;25.50;1.00
46416;DHT22;32620;51.704;7.822;2023-06-14T14:24:23;25.30;1.00
46416;DHT22;32620;51.704;7.822;2023-06-14T14:26:48;24.80;1.00
46416;DHT22;32620;51.704;7.822;2023-06-14T14:29:15;24.60;1.00
46416;DHT22;32620;51.704;7.822;2023-06-14T14:31:41;24.70;1.00
46416;DHT22;32620;51.704;7.822;2023-06-14T14:34:06;24.40;1.00
46416;DHT22;32620;51.704;7.822;2023-06-14T14:36:32;24.30;1.00
46416;DHT22;32620;51.704;7.822;2023-06-14T14:39:01;24.50;1.00
46416;DHT22;32620;51.704;7.822;2023-06-14T14:41:27;24.70;1.00
46416;DHT22;32620;51.704;7.822;2023-06-14T14:43:53;24.90;1.00
46416;DHT22;32620;51.704;7.822;2023-06-14T14:46:18;25.30;1.00
46416;DHT22;32620;51.704;7.822;2023-06-14T14:48:44;25.00;1.00
46416;DHT22;32620;51.704;7.822;2023-06-14T14:51:09;25.10;1.00
46416;DHT22;32620;51.704;7.822;2023-06-14T14:53:35;25.00;1.00
46416;DHT22;32620;51.704;7.822;2023-06-14T14:56:00;25.40;1.00
46416;DHT22;32620;51.704;7.822;2023-06-14T14:58:26;26.00;1.00
46416;DHT22;32620;51.704;7.822;2023-06-14T15:00:52;26.10;1.00
46416;DHT22;32620;51.704;7.822;2023-06-14T15:03:17;26.00;1.00
46416;DHT22;32620;51.704;7.822;2023-06-14T15:05:43;25.60;1.00
46416;DHT22;32620;51.704;7.822;2023-06-14T15:08:09;25.20;1.00
46416;DHT22;32620;51.704;7.822;2023-06-14T15:10:38;25.10;1.00
46416;DHT22;32620;51.704;7.822;2023-06-14T15:13:06;25.30;1.00
46416;DHT22;32620;51.704;7.822;2023-06-14T15:15:32;25.30;1.00
46416;DHT22;32620;51.704;7.822;2023-06-14T15:17:59;25.50;1.00
46416;DHT22;32620;51.704;7.822;2023-06-14T15:20:25;25.60;1.00
46416;DHT22;32620;51.704;7.822;2023-06-14T15:22:51;25.20;1.00
46416;DHT22;32620;51.704;7.822;2023-06-14T15:25:16;25.10;1.00
46416;DHT22;32620;51.704;7.822;2023-06-14T15:27:42;25.10;1.00
46416;DHT22;32620;51.704;7.822;2023-06-14T15:30:08;25.10;1.00
46416;DHT22;32620;51.704;7.822;2023-06-14T15:32:33;25.30;1.00
46416;DHT22;32620;51.704;7.822;2023-06-14T15:34:59;25.30;1.00
46416;DHT22;32620;51.704;7.822;2023-06-14T15:37:24;25.20;1.00
46416;DHT22;32620;51.704;7.822;2023-06-14T15:39:50;25.40;1.00
46416;DHT22;32620;51.704;7.822;2023-06-14T15:42:15;25.70;1.00
46416;DHT22;32620;51.704;7.822;2023-06-14T15:44:41;25.70;1.00
46416;DHT22;32620;51.704;7.822;2023-06-14T15:47:07;25.50;1.00
46416;DHT22;32620;51.704;7.822;2023-06-14T15:49:33;24.90;1.00